createdAt,value
2018-07-24T00:02:00.297Z,18.67
2018-07-24T00:04:28.875Z,18.73
2018-07-24T00:06:57.504Z,17.03
2018-07-24T00:09:26.800Z,18.00
2018-07-24T00:11:55.360Z,18.73
2018-07-24T00:14:23.952Z,17.77
2018-07-24T00:16:52.532Z,18.77
2018-07-24T00:19:21.088Z,19.80
2018-07-24T00:21:49.740Z,19.40
2018-07-24T00:24:18.701Z,18.03
2018-07-24T00:26:47.291Z,18.37
2018-07-24T00:29:16.036Z,18.40
2018-07-24T00:31:44.605Z,19.57
2018-07-24T00:34:13.218Z,20.30
2018-07-24T00:36:41.762Z,20.63
2018-07-24T00:39:10.355Z,19.80
2018-07-24T00:41:39.004Z,19.67
2018-07-24T00:44:07.655Z,19.57
2018-07-24T00:46:36.259Z,20.50
2018-07-24T00:49:04.859Z,19.63
2018-07-24T00:51:33.461Z,21.37
2018-07-24T00:54:02.125Z,20.60
2018-07-24T00:56:30.692Z,20.63
2018-07-24T00:58:59.266Z,21.83
2018-07-24T01:01:27.800Z,21.80
2018-07-24T01:03:56.407Z,21.00
2018-07-24T01:06:24.973Z,21.90
2018-07-24T01:08:53.616Z,20.73
2018-07-24T01:11:22.257Z,19.70
2018-07-24T01:13:50.844Z,18.37
2018-07-24T01:16:19.416Z,26.50
2018-07-24T01:18:47.967Z,20.43
2018-07-24T01:21:16.836Z,20.20
2018-07-24T01:23:45.459Z,19.77
2018-07-24T01:26:14.261Z,19.10
2018-07-24T01:28:42.793Z,18.53
2018-07-24T01:31:11.296Z,20.47
2018-07-24T01:33:39.875Z,21.73
2018-07-24T01:36:08.433Z,20.77
2018-07-24T01:38:37.008Z,21.17
2018-07-24T01:41:05.550Z,18.83
2018-07-24T01:43:34.130Z,19.60
2018-07-24T01:46:02.664Z,21.33
2018-07-24T01:48:30.883Z,19.57
2018-07-24T01:50:59.412Z,20.47
2018-07-24T01:53:27.975Z,22.20
2018-07-24T01:55:56.532Z,21.77
2018-07-24T01:58:25.083Z,20.13
2018-07-24T02:00:53.585Z,20.23
2018-07-24T02:03:22.129Z,21.30
2018-07-24T02:05:50.679Z,21.70
2018-07-24T02:08:19.201Z,22.73
2018-07-24T02:10:47.705Z,20.03
2018-07-24T02:13:16.258Z,21.53
2018-07-24T02:15:44.748Z,26.67
2018-07-24T02:18:13.270Z,22.23
2018-07-24T02:20:41.825Z,22.73
2018-07-24T02:23:10.527Z,21.87
2018-07-24T02:25:39.179Z,25.03
2018-07-24T02:28:08.257Z,21.63
2018-07-24T02:30:36.826Z,22.37
2018-07-24T02:33:05.537Z,21.20
2018-07-24T02:35:34.061Z,22.67
2018-07-24T02:38:02.677Z,23.93
2018-07-24T02:40:32.422Z,22.60
2018-07-24T02:43:01.042Z,21.20
2018-07-24T02:45:29.576Z,22.63
2018-07-24T02:47:58.153Z,20.87
2018-07-24T02:50:26.667Z,23.10
2018-07-24T02:52:55.192Z,23.10
2018-07-24T02:55:24.296Z,23.40
2018-07-24T02:57:52.909Z,21.03
2018-07-24T03:00:21.718Z,22.17
2018-07-24T03:02:50.423Z,23.83
2018-07-24T03:05:18.963Z,21.93
2018-07-24T03:07:47.476Z,23.50
2018-07-24T03:10:16.140Z,22.33
2018-07-24T03:12:44.699Z,23.30
2018-07-24T03:15:13.234Z,20.87
2018-07-24T03:17:41.775Z,23.27
2018-07-24T03:20:10.274Z,22.87
2018-07-24T03:22:38.873Z,25.27
2018-07-24T03:25:07.893Z,24.27
2018-07-24T03:27:36.637Z,23.77
2018-07-24T03:30:05.641Z,26.30
2018-07-24T03:32:34.296Z,26.30
2018-07-24T03:35:02.873Z,22.00
2018-07-24T03:37:31.377Z,20.23
2018-07-24T03:39:59.981Z,22.83
2018-07-24T03:42:28.480Z,22.50
2018-07-24T03:44:57.117Z,20.83
2018-07-24T03:47:25.687Z,22.63
2018-07-24T03:49:54.268Z,19.93
2018-07-24T03:52:22.810Z,24.60
2018-07-24T03:54:51.385Z,20.70
2018-07-24T03:57:19.916Z,21.90
2018-07-24T03:59:48.464Z,21.83
2018-07-24T04:02:17.026Z,27.27
2018-07-24T04:04:45.616Z,23.33
2018-07-24T04:07:14.172Z,22.57
2018-07-24T04:09:42.758Z,23.80
2018-07-24T04:12:11.284Z,20.83
2018-07-24T04:14:39.829Z,20.47
2018-07-24T04:17:08.349Z,21.10
2018-07-24T04:19:36.923Z,20.80
2018-07-24T04:22:06.302Z,20.07
2018-07-24T04:24:34.890Z,20.80
2018-07-24T04:27:03.437Z,20.43
2018-07-24T04:29:31.675Z,19.80
2018-07-24T04:32:00.227Z,19.70
2018-07-24T04:34:28.827Z,19.50
2018-07-24T04:36:58.078Z,18.97
2018-07-24T04:39:26.654Z,19.80
2018-07-24T04:41:55.145Z,19.33
2018-07-24T04:44:23.677Z,21.17
2018-07-24T04:46:52.236Z,19.73
2018-07-24T04:49:20.803Z,18.83
2018-07-24T04:51:49.415Z,19.73
2018-07-24T04:54:17.996Z,22.00
2018-07-24T04:56:46.524Z,18.20
2018-07-24T04:59:15.060Z,18.23
2018-07-24T05:01:43.577Z,18.83
2018-07-24T05:04:12.156Z,18.87
2018-07-24T05:06:40.690Z,17.20
2018-07-24T05:09:12.036Z,19.30
2018-07-24T05:11:40.580Z,18.30
2018-07-24T05:14:10.685Z,16.43
2018-07-24T05:16:39.684Z,15.67
2018-07-24T05:19:08.739Z,14.30
2018-07-24T05:21:37.725Z,16.83
2018-07-24T05:24:06.701Z,15.17
2018-07-24T05:26:35.312Z,12.73
2018-07-24T05:29:03.935Z,13.80
2018-07-24T05:31:32.531Z,16.10
2018-07-24T05:34:01.118Z,12.33
2018-07-24T05:36:29.680Z,12.53
2018-07-24T05:38:58.292Z,12.50
2018-07-24T05:41:26.860Z,14.20
2018-07-24T05:43:55.433Z,12.57
2018-07-24T05:46:24.055Z,12.57
2018-07-24T05:48:52.590Z,13.13
2018-07-24T05:51:21.174Z,12.80
2018-07-24T05:53:49.740Z,16.87
2018-07-24T05:56:18.284Z,13.27
2018-07-24T05:58:46.802Z,14.23
2018-07-24T06:01:15.403Z,12.90
2018-07-24T06:03:43.956Z,14.00
2018-07-24T06:06:12.543Z,13.10
2018-07-24T06:08:41.143Z,12.30
2018-07-24T06:11:10.115Z,13.37
2018-07-24T06:13:38.642Z,12.20
2018-07-24T06:16:07.146Z,14.03
2018-07-24T06:18:35.686Z,13.67
2018-07-24T06:21:04.245Z,11.63
2018-07-24T06:23:32.914Z,12.10
2018-07-24T06:26:01.496Z,12.30
2018-07-24T06:28:30.028Z,14.10
2018-07-24T06:30:58.549Z,12.77
2018-07-24T06:33:27.070Z,13.40
2018-07-24T06:35:55.674Z,13.30
2018-07-24T06:38:24.284Z,12.20
2018-07-24T06:40:52.872Z,12.07
2018-07-24T06:43:21.404Z,10.93
2018-07-24T06:45:49.953Z,13.00
2018-07-24T06:48:18.504Z,11.20
2018-07-24T06:50:47.104Z,11.80
2018-07-24T06:53:15.656Z,12.20
2018-07-24T06:55:44.272Z,12.20
2018-07-24T06:58:12.793Z,11.70
2018-07-24T07:00:41.431Z,12.43
2018-07-24T07:03:09.956Z,12.60
2018-07-24T07:05:38.547Z,13.97
2018-07-24T07:08:07.100Z,12.23
2018-07-24T07:10:35.690Z,11.17
2018-07-24T07:13:04.328Z,12.43
2018-07-24T07:15:32.855Z,12.60
2018-07-24T07:18:01.456Z,12.57
2018-07-24T07:20:30.007Z,13.30
2018-07-24T07:22:58.677Z,11.47
2018-07-24T07:25:27.296Z,11.63
2018-07-24T07:27:55.901Z,11.73
2018-07-24T07:30:24.622Z,11.97
2018-07-24T07:32:53.192Z,12.10
2018-07-24T07:35:21.885Z,13.50
2018-07-24T07:37:50.449Z,12.63
2018-07-24T07:40:19.038Z,11.60
2018-07-24T07:42:47.600Z,11.50
2018-07-24T07:45:16.129Z,11.10
2018-07-24T07:47:44.697Z,10.67
2018-07-24T07:50:13.228Z,11.83
2018-07-24T07:52:41.833Z,10.93
2018-07-24T07:55:10.348Z,10.23
2018-07-24T07:57:38.974Z,13.57
2018-07-24T08:00:07.753Z,10.43
2018-07-24T08:02:36.397Z,9.93
2018-07-24T08:05:04.956Z,10.20
2018-07-24T08:07:33.500Z,9.50
2018-07-24T08:10:02.051Z,9.23
2018-07-24T08:12:30.588Z,9.60
2018-07-24T08:14:59.156Z,8.80
2018-07-24T08:17:27.717Z,9.03
2018-07-24T08:19:56.363Z,8.87
2018-07-24T08:22:24.962Z,12.17
2018-07-24T08:24:53.470Z,8.83
2018-07-24T08:27:22.084Z,9.27
2018-07-24T08:29:50.632Z,8.40
2018-07-24T08:32:19.326Z,8.87
2018-07-24T08:34:47.829Z,8.63
2018-07-24T08:37:16.417Z,8.50
2018-07-24T08:39:44.993Z,8.60
2018-07-24T08:42:13.558Z,7.73
2018-07-24T08:44:42.056Z,9.10
2018-07-24T08:47:10.608Z,7.90
2018-07-24T08:49:39.112Z,8.80
2018-07-24T08:52:07.753Z,8.20
2018-07-24T08:54:36.569Z,8.13
2018-07-24T08:57:04.841Z,7.90
2018-07-24T08:59:33.344Z,9.10
2018-07-24T09:02:01.996Z,7.23
2018-07-24T09:04:30.512Z,7.40
2018-07-24T09:06:59.400Z,7.73
2018-07-24T09:09:27.935Z,8.23
2018-07-24T09:11:56.472Z,6.80
2018-07-24T09:14:24.975Z,7.27
2018-07-24T09:16:53.533Z,6.87
2018-07-24T09:19:22.084Z,11.60
2018-07-24T09:21:50.601Z,7.50
2018-07-24T09:24:19.172Z,9.53
2018-07-24T09:26:47.740Z,7.83
2018-07-24T09:29:16.304Z,7.17
2018-07-24T09:31:44.817Z,6.57
2018-07-24T09:34:13.388Z,7.53
2018-07-24T09:36:41.936Z,7.07
2018-07-24T09:39:11.355Z,7.20
2018-07-24T09:41:40.351Z,8.73
2018-07-24T09:44:08.908Z,9.03
2018-07-24T09:46:37.424Z,7.33
2018-07-24T09:49:06.144Z,7.50
2018-07-24T09:51:34.658Z,7.27
2018-07-24T09:54:03.270Z,8.33
2018-07-24T09:56:31.877Z,8.10
2018-07-24T09:59:00.348Z,7.87
2018-07-24T10:01:31.542Z,7.63
2018-07-24T10:04:00.403Z,7.23
2018-07-24T10:06:29.006Z,7.00
2018-07-24T10:08:57.591Z,7.20
2018-07-24T10:11:26.105Z,6.53
2018-07-24T10:13:54.724Z,6.93
2018-07-24T10:16:23.338Z,6.67
2018-07-24T10:18:51.946Z,7.47
2018-07-24T10:21:20.458Z,6.40
2018-07-24T10:23:49.000Z,6.40
2018-07-24T10:26:17.204Z,7.00
2018-07-24T10:28:45.840Z,7.40
2018-07-24T10:31:14.360Z,8.17
2018-07-24T10:33:42.877Z,7.53
2018-07-24T10:36:11.490Z,7.73
2018-07-24T10:38:40.103Z,8.20
2018-07-24T10:41:08.680Z,7.40
2018-07-24T10:43:37.214Z,7.67
2018-07-24T10:46:05.936Z,7.50
2018-07-24T10:48:34.504Z,7.67
2018-07-24T10:51:02.997Z,9.33
2018-07-24T10:53:31.524Z,7.63
2018-07-24T10:56:00.022Z,6.93
2018-07-24T10:58:28.595Z,6.90
2018-07-24T11:00:57.115Z,7.00
2018-07-24T11:03:25.613Z,6.50
2018-07-24T11:05:54.163Z,7.10
2018-07-24T11:08:22.693Z,6.20
2018-07-24T11:10:51.212Z,6.50
2018-07-24T11:13:19.803Z,7.03
2018-07-24T11:15:48.292Z,6.97
2018-07-24T11:18:16.900Z,7.47
2018-07-24T11:20:45.421Z,7.17
2018-07-24T11:23:14.114Z,6.63
2018-07-24T11:25:42.554Z,10.37
2018-07-24T11:28:11.089Z,7.73
2018-07-24T11:30:39.624Z,9.70
2018-07-24T11:33:08.273Z,7.20
2018-07-24T11:35:36.780Z,6.83
2018-07-24T11:38:05.499Z,6.70
2018-07-24T11:40:34.067Z,7.03
2018-07-24T11:43:02.704Z,6.87
2018-07-24T11:45:31.260Z,6.87
2018-07-24T11:47:59.784Z,6.77
2018-07-24T11:50:28.317Z,7.23
2018-07-24T11:52:56.894Z,7.00
2018-07-24T11:55:25.448Z,6.77
2018-07-24T11:57:54.049Z,5.90
2018-07-24T12:00:22.653Z,6.67
2018-07-24T12:02:51.308Z,7.90
2018-07-24T12:05:20.312Z,6.00
2018-07-24T12:07:48.914Z,6.70
2018-07-24T12:10:17.441Z,6.93
2018-07-24T12:12:46.002Z,7.03
2018-07-24T12:15:14.637Z,7.00
2018-07-24T12:17:43.141Z,6.60
2018-07-24T12:20:11.786Z,5.80
2018-07-24T12:22:40.361Z,7.57
2018-07-24T12:25:09.037Z,6.13
2018-07-24T12:27:37.648Z,6.50
2018-07-24T12:30:07.062Z,5.30
2018-07-24T12:32:35.664Z,6.10
2018-07-24T12:35:04.355Z,6.17
2018-07-24T12:37:32.900Z,5.00
2018-07-24T12:40:01.460Z,6.83
2018-07-24T12:42:30.001Z,6.20
2018-07-24T12:44:58.656Z,5.80
2018-07-24T12:47:27.277Z,5.90
2018-07-24T12:49:55.813Z,5.80
2018-07-24T12:52:24.454Z,5.70
2018-07-24T12:54:53.030Z,6.17
2018-07-24T12:57:21.685Z,5.43
2018-07-24T12:59:50.291Z,5.77
2018-07-24T13:02:18.844Z,8.20
2018-07-24T13:04:47.387Z,5.93
2018-07-24T13:07:15.961Z,6.13
2018-07-24T13:09:44.561Z,5.73
2018-07-24T13:12:13.094Z,5.97
2018-07-24T13:14:41.665Z,5.83
2018-07-24T13:17:10.363Z,5.37
2018-07-24T13:19:39.062Z,6.03
2018-07-24T13:22:07.542Z,5.00
2018-07-24T13:24:36.124Z,5.17
2018-07-24T13:27:04.673Z,5.63
2018-07-24T13:29:33.207Z,5.80
2018-07-24T13:32:01.805Z,5.10
2018-07-24T13:34:30.327Z,4.60
2018-07-24T13:36:58.952Z,6.03
2018-07-24T13:39:27.474Z,6.00
2018-07-24T13:41:56.000Z,5.30
2018-07-24T13:44:24.560Z,5.47
2018-07-24T13:46:53.204Z,5.10
2018-07-24T13:49:21.782Z,5.73
2018-07-24T13:51:50.290Z,6.30
2018-07-24T13:54:18.877Z,5.90
2018-07-24T13:56:47.375Z,6.00
2018-07-24T13:59:15.941Z,6.43
2018-07-24T14:01:44.465Z,6.07
2018-07-24T14:04:13.047Z,5.73
2018-07-24T14:06:41.648Z,5.30
2018-07-24T14:09:11.593Z,5.97
2018-07-24T14:11:40.593Z,5.67
2018-07-24T14:14:09.433Z,6.20
2018-07-24T14:16:38.078Z,6.13
2018-07-24T14:19:06.888Z,6.03
2018-07-24T14:21:35.481Z,6.20
2018-07-24T14:24:04.125Z,5.53
2018-07-24T14:26:32.676Z,6.83
2018-07-24T14:29:01.196Z,5.20
2018-07-24T14:31:29.721Z,4.70
2018-07-24T14:33:58.245Z,5.57
2018-07-24T14:36:26.793Z,5.17
2018-07-24T14:38:55.332Z,5.30
2018-07-24T14:41:23.872Z,4.93
2018-07-24T14:43:52.433Z,4.90
2018-07-24T14:46:20.984Z,5.53
2018-07-24T14:48:49.463Z,5.57
2018-07-24T14:51:18.053Z,5.47
2018-07-24T14:53:46.623Z,5.87
2018-07-24T14:56:15.177Z,4.50
2018-07-24T14:58:43.696Z,5.33
2018-07-24T15:01:12.257Z,5.10
2018-07-24T15:03:40.817Z,12.13
2018-07-24T15:06:09.337Z,4.97
2018-07-24T15:08:37.808Z,5.77
2018-07-24T15:11:06.404Z,5.27
2018-07-24T15:13:34.936Z,4.90
2018-07-24T15:16:03.505Z,5.20
2018-07-24T15:18:32.118Z,4.80
2018-07-24T15:21:00.678Z,4.83
2018-07-24T15:23:29.199Z,6.00
2018-07-24T15:25:57.749Z,5.13
2018-07-24T15:28:26.285Z,5.13
2018-07-24T15:30:54.951Z,4.47
2018-07-24T15:33:23.476Z,5.30
2018-07-24T15:35:52.119Z,5.03
2018-07-24T15:38:20.685Z,4.70
2018-07-24T15:40:49.244Z,4.90
2018-07-24T15:43:17.774Z,4.83
2018-07-24T15:45:46.291Z,4.70
2018-07-24T15:48:14.831Z,5.43
2018-07-24T15:50:43.440Z,5.07
2018-07-24T15:53:12.016Z,5.80
2018-07-24T15:55:40.548Z,5.00
2018-07-24T15:58:09.114Z,5.67
2018-07-24T16:00:37.702Z,5.07
2018-07-24T16:03:06.308Z,4.83
2018-07-24T16:05:35.094Z,5.13
2018-07-24T16:08:03.682Z,5.97
2018-07-24T16:10:32.248Z,5.97
2018-07-24T16:13:00.804Z,5.73
2018-07-24T16:15:29.434Z,6.33
2018-07-24T16:17:57.935Z,5.13
2018-07-24T16:20:26.536Z,4.53
2018-07-24T16:22:55.170Z,5.30
2018-07-24T16:25:23.748Z,5.23
2018-07-24T16:27:52.292Z,5.20
2018-07-24T16:30:20.915Z,5.50
2018-07-24T16:32:49.474Z,5.53
2018-07-24T16:35:18.012Z,5.30
2018-07-24T16:37:46.561Z,5.47
2018-07-24T16:40:15.092Z,6.33
2018-07-24T16:42:43.608Z,5.10
2018-07-24T16:45:12.150Z,5.47
2018-07-24T16:47:40.652Z,4.97
2018-07-24T16:50:09.276Z,5.27
2018-07-24T16:52:37.832Z,4.93
2018-07-24T16:55:06.434Z,5.83
2018-07-24T16:57:34.993Z,5.57
2018-07-24T17:00:03.578Z,5.30
2018-07-24T17:02:32.873Z,5.33
2018-07-24T17:05:01.458Z,5.10
2018-07-24T17:07:30.048Z,5.90
2018-07-24T17:09:58.598Z,5.13
2018-07-24T17:12:27.139Z,4.80
2018-07-24T17:14:55.715Z,5.70
2018-07-24T17:17:24.860Z,5.83
2018-07-24T17:19:53.483Z,5.50
2018-07-24T17:22:21.990Z,5.77
2018-07-24T17:24:50.633Z,5.23
2018-07-24T17:27:19.224Z,6.30
2018-07-24T17:29:47.748Z,6.87
2018-07-24T17:32:16.376Z,5.70
2018-07-24T17:34:44.941Z,9.30
2018-07-24T17:37:13.568Z,6.83
2018-07-24T17:39:42.108Z,6.23
2018-07-24T17:42:10.745Z,5.50
2018-07-24T17:44:39.280Z,7.00
2018-07-24T17:47:07.828Z,5.47
2018-07-24T17:49:37.145Z,5.97
2018-07-24T17:52:05.952Z,5.60
2018-07-24T17:54:34.554Z,5.63
2018-07-24T17:57:02.700Z,6.03
2018-07-24T17:59:31.421Z,4.90
2018-07-24T18:01:59.988Z,5.87
2018-07-24T18:04:28.568Z,6.60
2018-07-24T18:06:57.143Z,6.30
2018-07-24T18:09:26.632Z,7.23
2018-07-24T18:11:55.216Z,6.00
2018-07-24T18:14:23.776Z,6.67
2018-07-24T18:16:52.305Z,8.63
2018-07-24T18:19:20.879Z,6.53
2018-07-24T18:21:49.411Z,6.53
2018-07-24T18:24:17.905Z,6.70
2018-07-24T18:26:46.477Z,6.10
2018-07-24T18:29:15.027Z,7.33
2018-07-24T18:31:43.604Z,7.00
2018-07-24T18:34:12.110Z,6.40
2018-07-24T18:36:40.697Z,6.77
2018-07-24T18:39:09.866Z,6.13
2018-07-24T18:41:38.793Z,6.80
2018-07-24T18:44:07.332Z,5.90
2018-07-24T18:46:35.973Z,6.40
2018-07-24T18:49:04.581Z,6.43
2018-07-24T18:51:33.166Z,5.97
2018-07-24T18:54:01.688Z,7.40
2018-07-24T18:56:29.899Z,7.17
2018-07-24T18:58:58.445Z,6.30
2018-07-24T19:01:27.013Z,7.13
2018-07-24T19:03:55.548Z,6.00
2018-07-24T19:06:24.092Z,6.17
2018-07-24T19:08:52.831Z,7.57
2018-07-24T19:11:21.409Z,6.10
2018-07-24T19:13:50.035Z,6.10
2018-07-24T19:16:18.632Z,6.67
2018-07-24T19:18:47.244Z,7.60
2018-07-24T19:21:15.836Z,6.70
2018-07-24T19:23:44.382Z,10.90
2018-07-24T19:26:12.916Z,7.00
2018-07-24T19:28:41.089Z,6.30
2018-07-24T19:31:09.653Z,6.20
2018-07-24T19:33:38.175Z,6.17
2018-07-24T19:36:06.861Z,6.13
2018-07-24T19:38:35.396Z,6.13
2018-07-24T19:41:03.972Z,6.97
2018-07-24T19:43:32.522Z,7.60
2018-07-24T19:46:01.207Z,7.33
2018-07-24T19:48:29.788Z,7.03
2018-07-24T19:50:58.352Z,6.63
2018-07-24T19:53:26.912Z,6.50
2018-07-24T19:55:55.534Z,7.50
2018-07-24T19:58:24.140Z,7.73
2018-07-24T20:00:52.706Z,7.10
2018-07-24T20:03:21.257Z,7.80
2018-07-24T20:05:49.772Z,10.03
2018-07-24T20:08:18.394Z,7.53
2018-07-24T20:10:46.919Z,9.90
2018-07-24T20:13:15.540Z,10.30
2018-07-24T20:15:44.039Z,6.73
2018-07-24T20:18:12.674Z,7.97
2018-07-24T20:20:41.307Z,7.07
2018-07-24T20:23:09.923Z,8.90
2018-07-24T20:25:38.404Z,8.07
2018-07-24T20:28:07.027Z,8.30
2018-07-24T20:30:35.536Z,7.87
2018-07-24T20:33:04.039Z,8.10
2018-07-24T20:35:32.703Z,7.63
2018-07-24T20:38:01.161Z,7.70
2018-07-24T20:40:29.676Z,6.93
2018-07-24T20:42:58.235Z,7.83
2018-07-24T20:45:27.363Z,8.23
2018-07-24T20:47:55.960Z,9.40
2018-07-24T20:50:24.584Z,9.00
2018-07-24T20:52:53.197Z,8.63
2018-07-24T20:55:21.725Z,9.47
2018-07-24T20:57:50.284Z,8.97
2018-07-24T21:00:19.227Z,8.90
2018-07-24T21:02:47.760Z,8.03
2018-07-24T21:05:16.253Z,8.50
2018-07-24T21:07:44.822Z,7.80
2018-07-24T21:10:19.320Z,7.63
2018-07-24T21:12:49.163Z,8.23
2018-07-24T21:15:18.397Z,8.50
2018-07-24T21:17:47.148Z,8.97
2018-07-24T21:20:15.724Z,8.00
2018-07-24T21:22:44.282Z,9.57
2018-07-24T21:25:12.800Z,9.53
2018-07-24T21:27:41.410Z,8.63
2018-07-24T21:30:10.525Z,8.07
2018-07-24T21:32:39.085Z,9.33
2018-07-24T21:35:07.656Z,8.53
2018-07-24T21:37:36.238Z,9.23
2018-07-24T21:40:04.919Z,8.50
2018-07-24T21:42:33.508Z,7.63
2018-07-24T21:45:02.025Z,7.83
2018-07-24T21:47:30.549Z,7.77
2018-07-24T21:49:59.091Z,8.83
2018-07-24T21:52:27.619Z,9.27
2018-07-24T21:54:56.248Z,9.60
2018-07-24T21:57:24.785Z,8.90
2018-07-24T21:59:53.307Z,8.07
2018-07-24T22:02:21.832Z,9.30
2018-07-24T22:04:50.068Z,9.27
2018-07-24T22:07:18.591Z,8.73
2018-07-24T22:09:47.144Z,9.80
2018-07-24T22:12:15.713Z,11.20
2018-07-24T22:14:44.259Z,10.30
2018-07-24T22:17:12.827Z,10.10
2018-07-24T22:19:41.345Z,9.57
2018-07-24T22:22:09.836Z,9.20
2018-07-24T22:24:38.351Z,9.20
2018-07-24T22:27:06.853Z,10.33
2018-07-24T22:29:35.424Z,11.67
2018-07-24T22:32:03.967Z,10.07
2018-07-24T22:34:32.524Z,10.50
2018-07-24T22:37:01.005Z,9.50
2018-07-24T22:39:29.544Z,10.53
2018-07-24T22:41:58.081Z,10.00
2018-07-24T22:44:26.652Z,11.83
2018-07-24T22:46:55.156Z,10.60
2018-07-24T22:49:23.708Z,11.20
2018-07-24T22:51:52.239Z,10.77
2018-07-24T22:54:20.776Z,10.07
2018-07-24T22:56:49.347Z,10.63
2018-07-24T22:59:17.876Z,11.97
2018-07-24T23:01:46.393Z,11.77
2018-07-24T23:04:14.954Z,10.83
2018-07-24T23:06:43.477Z,9.93
2018-07-24T23:09:11.999Z,9.97
2018-07-24T23:11:40.758Z,10.40
2018-07-24T23:14:09.301Z,11.20
2018-07-24T23:16:37.856Z,10.63
2018-07-24T23:19:06.442Z,11.63
2018-07-24T23:21:34.929Z,10.23
2018-07-24T23:24:03.487Z,12.10
2018-07-24T23:26:32.008Z,11.33
2018-07-24T23:29:00.568Z,11.23
2018-07-24T23:31:29.068Z,11.60
2018-07-24T23:33:58.483Z,10.90
2018-07-24T23:36:27.023Z,10.90
2018-07-24T23:38:55.555Z,12.10
2018-07-24T23:41:24.070Z,11.27
2018-07-24T23:43:52.596Z,10.60
2018-07-24T23:46:21.123Z,10.17
2018-07-24T23:48:49.708Z,11.80
2018-07-24T23:51:18.236Z,11.27
2018-07-24T23:53:46.737Z,11.50
2018-07-24T23:56:15.289Z,11.20
2018-07-24T23:58:43.813Z,10.67
